createdAt,value
2022-12-15T00:00:44.684Z,164.95
2022-12-15T00:03:30.772Z,165.00
2022-12-15T00:06:18.840Z,168.18
2022-12-15T00:09:05.307Z,164.18
2022-12-15T00:11:54.314Z,161.02
2022-12-15T00:14:40.029Z,172.68
2022-12-15T00:17:25.723Z,167.52
2022-12-15T00:20:11.272Z,143.68
2022-12-15T00:22:57.269Z,144.50
2022-12-15T00:25:42.897Z,148.60
2022-12-15T00:28:29.951Z,150.05
2022-12-15T00:31:17.328Z,165.98
2022-12-15T00:34:02.738Z,169.35
2022-12-15T00:36:49.914Z,176.75
2022-12-15T00:39:18.416Z,172.07
2022-12-15T00:41:46.678Z,172.02
2022-12-15T00:44:20.586Z,168.50
2022-12-15T00:46:56.885Z,173.63
2022-12-15T00:49:43.418Z,175.45
2022-12-15T00:52:30.317Z,168.40
2022-12-15T00:55:16.346Z,165.85
2022-12-15T00:58:02.208Z,163.70
2022-12-15T01:00:49.451Z,175.40
2022-12-15T01:03:38.127Z,179.43
2022-12-15T01:06:24.523Z,178.52
2022-12-15T01:09:10.091Z,177.63
2022-12-15T01:11:58.188Z,176.75
2022-12-15T01:14:43.561Z,180.40
2022-12-15T01:17:31.037Z,170.30
2022-12-15T01:20:14.396Z,186.90
2022-12-15T01:22:43.453Z,178.18
2022-12-15T01:25:12.069Z,181.38
2022-12-15T01:27:40.258Z,176.88
2022-12-15T01:30:11.000Z,186.40
2022-12-15T01:32:45.843Z,174.55
2022-12-15T01:35:14.941Z,176.90
2022-12-15T01:37:43.113Z,185.23
2022-12-15T01:40:33.971Z,181.15
2022-12-15T01:43:02.567Z,176.23
2022-12-15T01:45:56.305Z,166.88
2022-12-15T01:48:37.066Z,183.77
2022-12-15T01:51:17.321Z,187.95
2022-12-15T01:53:51.356Z,180.40
2022-12-15T01:56:21.541Z,170.75
2022-12-15T01:58:51.769Z,167.68
2022-12-15T02:01:19.952Z,173.88
2022-12-15T02:03:52.499Z,158.68
2022-12-15T02:06:22.724Z,164.18
2022-12-15T02:08:54.156Z,171.15
2022-12-15T02:11:44.521Z,166.70
2022-12-15T02:14:15.739Z,156.15
2022-12-15T02:17:03.022Z,168.13
2022-12-15T02:20:14.020Z,166.27
2022-12-15T02:22:58.277Z,171.02
2022-12-15T02:25:45.990Z,173.40
2022-12-15T02:28:32.832Z,164.57
2022-12-15T02:31:22.481Z,175.07
2022-12-15T02:33:55.760Z,163.38
2022-12-15T02:36:28.542Z,166.75
2022-12-15T02:38:56.607Z,167.45
2022-12-15T02:41:35.621Z,172.48
2022-12-15T02:44:08.274Z,165.15
2022-12-15T02:46:52.300Z,154.80
2022-12-15T02:49:29.835Z,159.40
2022-12-15T02:52:08.557Z,155.25
2022-12-15T02:55:00.869Z,167.93
2022-12-15T02:57:36.379Z,156.63
2022-12-15T03:00:07.830Z,166.98
2022-12-15T03:02:39.802Z,164.02
2022-12-15T03:05:11.283Z,171.40
2022-12-15T03:07:39.312Z,165.27
2022-12-15T03:10:08.523Z,164.63
2022-12-15T03:12:36.585Z,161.07
2022-12-15T03:15:05.260Z,156.00
2022-12-15T03:17:33.507Z,149.57
2022-12-15T03:20:03.045Z,151.15
2022-12-15T03:22:31.621Z,151.45
2022-12-15T03:25:02.044Z,146.55
2022-12-15T03:27:30.505Z,147.70
2022-12-15T03:29:58.611Z,149.98
2022-12-15T03:32:26.753Z,160.23
2022-12-15T03:34:55.117Z,153.35
2022-12-15T03:37:24.719Z,151.90
2022-12-15T03:39:52.779Z,153.02
2022-12-15T03:42:41.458Z,155.35
2022-12-15T03:45:10.412Z,161.55
2022-12-15T03:47:42.360Z,144.35
2022-12-15T03:50:11.998Z,146.88
2022-12-15T03:52:41.679Z,141.05
2022-12-15T03:55:11.545Z,147.98
2022-12-15T03:57:39.704Z,135.95
2022-12-15T04:00:09.014Z,141.45
2022-12-15T04:02:43.610Z,145.70
2022-12-15T04:05:18.208Z,136.38
2022-12-15T04:07:47.759Z,133.10
2022-12-15T04:10:16.110Z,138.57
2022-12-15T04:12:44.180Z,143.43
2022-12-15T04:15:12.925Z,146.05
2022-12-15T04:17:43.168Z,136.15
2022-12-15T04:20:12.191Z,145.48
2022-12-15T04:22:41.954Z,144.95
2022-12-15T04:25:30.952Z,148.75
2022-12-15T04:28:16.710Z,134.52
2022-12-15T04:31:07.543Z,142.30
2022-12-15T04:33:54.052Z,131.57
2022-12-15T04:36:40.411Z,138.73
2022-12-15T04:39:25.968Z,143.38
2022-12-15T04:42:14.079Z,138.38
2022-12-15T04:44:59.762Z,151.13
2022-12-15T04:47:45.237Z,139.80
2022-12-15T04:50:33.052Z,143.73
2022-12-15T04:53:26.752Z,139.45
2022-12-15T04:56:18.056Z,146.30
2022-12-15T04:59:06.059Z,145.07
2022-12-15T05:01:51.754Z,134.60
2022-12-15T05:04:37.564Z,131.90
2022-12-15T05:07:23.283Z,138.02
2022-12-15T05:10:14.582Z,131.82
2022-12-15T05:13:00.843Z,130.77
2022-12-15T05:15:47.778Z,132.27
2022-12-15T05:18:33.703Z,134.02
2022-12-15T05:21:19.096Z,128.40
2022-12-15T05:24:04.534Z,127.85
2022-12-15T05:26:52.867Z,131.48
2022-12-15T05:29:38.680Z,128.60
2022-12-15T05:32:08.633Z,139.85
2022-12-15T05:34:37.615Z,144.00
2022-12-15T05:37:07.093Z,132.85
2022-12-15T05:39:35.572Z,127.97
2022-12-15T05:42:03.740Z,140.00
2022-12-15T05:44:31.860Z,135.30
2022-12-15T05:46:59.913Z,129.40
2022-12-15T05:49:29.407Z,140.82
2022-12-15T05:51:58.093Z,139.02
2022-12-15T05:54:26.233Z,147.48
2022-12-15T05:56:54.351Z,126.43
2022-12-15T05:59:22.607Z,141.93
2022-12-15T06:01:50.828Z,145.70
2022-12-15T06:04:19.460Z,135.70
2022-12-15T06:06:49.054Z,154.70
2022-12-15T06:09:17.107Z,155.25
2022-12-15T06:11:45.503Z,144.88
2022-12-15T06:14:13.551Z,138.35
2022-12-15T06:16:50.377Z,160.23
2022-12-15T06:19:20.697Z,158.43
2022-12-15T06:21:50.531Z,160.32
2022-12-15T06:24:18.623Z,152.23
2022-12-15T06:26:49.635Z,150.57
2022-12-15T06:29:18.925Z,154.70
2022-12-15T06:31:47.171Z,147.23
2022-12-15T06:34:17.056Z,157.07
2022-12-15T06:36:45.526Z,158.07
2022-12-15T06:39:16.548Z,148.43
2022-12-15T06:41:45.283Z,162.32
2022-12-15T06:44:16.813Z,146.48
2022-12-15T06:46:46.037Z,148.35
2022-12-15T06:49:14.709Z,149.27
2022-12-15T06:51:43.932Z,145.13
2022-12-15T06:54:14.113Z,135.27
2022-12-15T06:56:42.231Z,147.30
2022-12-15T06:59:13.376Z,140.57
2022-12-15T07:01:43.020Z,127.55
2022-12-15T07:04:11.953Z,137.82
2022-12-15T07:06:42.340Z,137.77
2022-12-15T07:11:44.084Z,125.40
2022-12-15T07:14:12.261Z,134.93
2022-12-15T07:16:41.097Z,120.00
2022-12-15T07:19:12.820Z,134.35
2022-12-15T07:21:42.127Z,129.70
2022-12-15T07:24:12.855Z,128.60
2022-12-15T07:26:42.581Z,135.82
2022-12-15T07:29:11.781Z,128.98
2022-12-15T07:31:39.983Z,125.38
2022-12-15T07:34:10.332Z,130.77
2022-12-15T07:36:38.483Z,124.97
2022-12-15T07:39:06.939Z,121.03
2022-12-15T07:41:38.881Z,114.75
2022-12-15T07:44:08.621Z,123.15
2022-12-15T07:46:36.847Z,122.38
2022-12-15T07:49:05.127Z,123.75
2022-12-15T07:51:33.282Z,126.50
2022-12-15T07:54:01.432Z,113.47
2022-12-15T07:56:32.170Z,123.63
2022-12-15T07:59:02.786Z,124.50
2022-12-15T08:01:32.392Z,129.57
2022-12-15T08:04:02.904Z,115.32
2022-12-15T08:06:31.256Z,111.45
2022-12-15T08:08:59.364Z,109.70
2022-12-15T08:11:27.436Z,115.72
2022-12-15T08:14:04.503Z,107.50
2022-12-15T08:16:36.821Z,104.97
2022-12-15T08:19:06.268Z,102.45
2022-12-15T08:21:34.916Z,103.75
2022-12-15T08:24:04.226Z,107.47
2022-12-15T08:26:34.794Z,108.00
2022-12-15T08:29:49.626Z,108.32
2022-12-15T08:32:00.448Z,106.70
2022-12-15T08:34:28.708Z,101.72
2022-12-15T08:36:56.776Z,108.13
2022-12-15T08:39:25.224Z,105.63
2022-12-15T08:41:53.318Z,110.55
2022-12-15T08:44:24.163Z,109.22
2022-12-15T08:46:52.369Z,114.25
2022-12-15T08:49:22.674Z,114.30
2022-12-15T08:51:51.985Z,101.80
2022-12-15T08:54:21.524Z,107.55
2022-12-15T08:56:50.048Z,110.90
2022-12-15T08:59:20.433Z,118.25
2022-12-15T09:01:48.825Z,108.55
2022-12-15T09:04:17.588Z,104.05
2022-12-15T09:06:50.917Z,108.82
2022-12-15T09:09:21.943Z,100.85
2022-12-15T09:11:50.512Z,106.05
2022-12-15T09:14:24.167Z,108.25
2022-12-15T09:16:56.926Z,112.20
2022-12-15T09:19:25.273Z,116.18
2022-12-15T09:21:55.950Z,109.47
2022-12-15T09:24:32.455Z,109.25
2022-12-15T09:27:03.096Z,108.55
2022-12-15T09:29:31.336Z,113.05
2022-12-15T09:32:00.080Z,110.72
2022-12-15T09:34:36.576Z,103.50
2022-12-15T09:37:07.758Z,110.93
2022-12-15T09:39:37.047Z,115.13
2022-12-15T09:42:24.116Z,118.03
2022-12-15T09:44:59.572Z,113.03
2022-12-15T09:47:43.223Z,100.93
2022-12-15T09:50:13.548Z,108.18
2022-12-15T09:52:49.210Z,120.70
2022-12-15T09:55:22.329Z,111.15
2022-12-15T09:57:55.064Z,113.90
2022-12-15T10:00:25.757Z,112.25
2022-12-15T10:03:32.828Z,106.82
2022-12-15T10:06:16.580Z,114.18
2022-12-15T10:08:53.532Z,98.38
2022-12-15T10:11:37.031Z,111.43
2022-12-15T10:14:17.375Z,98.10
2022-12-15T10:16:57.164Z,102.10
2022-12-15T10:19:32.366Z,106.80
2022-12-15T10:22:00.911Z,98.97
2022-12-15T10:27:51.714Z,102.03
2022-12-15T10:30:21.504Z,104.85
2022-12-15T10:35:29.631Z,92.22
2022-12-15T10:38:00.062Z,95.93
2022-12-15T10:40:50.398Z,85.55
2022-12-15T10:43:34.240Z,95.00
2022-12-15T10:46:07.876Z,96.40
2022-12-15T10:48:39.825Z,96.78
2022-12-15T10:51:24.079Z,89.43
2022-12-15T10:53:55.223Z,95.13
2022-12-15T10:56:33.293Z,84.60
2022-12-15T10:59:04.908Z,90.80
2022-12-15T11:01:35.804Z,87.88
2022-12-15T11:04:06.743Z,90.68
2022-12-15T11:06:36.791Z,90.63
2022-12-15T11:09:27.981Z,96.63
2022-12-15T11:12:15.309Z,89.78
2022-12-15T11:14:49.700Z,90.28
2022-12-15T11:17:21.639Z,96.30
2022-12-15T11:20:01.982Z,84.50
2022-12-15T11:22:41.581Z,86.88
2022-12-15T11:25:22.736Z,87.65
2022-12-15T11:27:55.650Z,85.10
2022-12-15T11:30:27.869Z,90.40
2022-12-15T11:33:00.119Z,89.57
2022-12-15T11:35:34.716Z,91.00
2022-12-15T11:38:14.126Z,84.32
2022-12-15T11:40:43.481Z,85.45
2022-12-15T11:43:33.164Z,85.57
2022-12-15T11:46:24.016Z,86.90
2022-12-15T11:49:07.231Z,98.03
2022-12-15T11:51:43.608Z,89.80
2022-12-15T11:54:19.081Z,89.38
2022-12-15T11:56:51.259Z,91.15
2022-12-15T11:59:47.161Z,82.97
2022-12-15T12:02:39.132Z,96.45
2022-12-15T12:05:35.921Z,79.30
2022-12-15T12:08:16.880Z,87.90
2022-12-15T12:10:58.304Z,96.72
2022-12-15T12:13:36.457Z,96.15
2022-12-15T12:16:17.046Z,86.63
2022-12-15T12:18:52.394Z,87.68
2022-12-15T12:21:25.990Z,87.72
2022-12-15T12:23:59.466Z,92.50
2022-12-15T12:26:33.635Z,93.30
2022-12-15T12:29:08.538Z,83.43
2022-12-15T12:31:47.813Z,79.68
2022-12-15T12:34:27.541Z,82.18
2022-12-15T12:36:58.988Z,91.00
2022-12-15T12:39:27.975Z,83.38
2022-12-15T12:42:04.730Z,89.80
2022-12-15T12:44:35.454Z,87.50
2022-12-15T12:47:17.097Z,92.68
2022-12-15T12:49:48.440Z,81.90
2022-12-15T12:52:23.468Z,86.88
2022-12-15T12:55:00.571Z,91.32
2022-12-15T12:57:43.734Z,87.60
2022-12-15T13:00:30.965Z,92.50
2022-12-15T13:03:19.967Z,100.70
2022-12-15T13:05:51.645Z,95.15
2022-12-15T13:08:51.042Z,94.13
2022-12-15T13:12:15.103Z,88.03
2022-12-15T13:14:52.001Z,90.90
2022-12-15T13:17:30.256Z,95.85
2022-12-15T13:20:24.381Z,88.40
2022-12-15T13:22:54.042Z,83.65
2022-12-15T13:26:03.237Z,92.10
2022-12-15T13:28:45.633Z,93.78
2022-12-15T13:31:49.417Z,91.47
2022-12-15T13:34:24.092Z,91.63
2022-12-15T13:37:01.541Z,96.45
2022-12-15T13:39:52.034Z,86.28
2022-12-15T13:42:40.262Z,85.47
2022-12-15T13:45:50.723Z,91.28
2022-12-15T13:48:49.305Z,87.30
2022-12-15T13:51:35.303Z,82.95
2022-12-15T13:54:22.203Z,94.57
2022-12-15T13:57:01.007Z,88.78
2022-12-15T13:59:42.296Z,82.30
2022-12-15T14:02:25.274Z,84.68
2022-12-15T14:05:15.236Z,83.25
2022-12-15T14:07:52.638Z,85.93
2022-12-15T14:10:28.297Z,86.93
2022-12-15T14:12:59.033Z,87.75
2022-12-15T14:15:29.856Z,89.20
2022-12-15T14:17:58.863Z,88.13
2022-12-15T14:20:29.403Z,89.15
2022-12-15T14:22:57.556Z,87.53
2022-12-15T14:25:30.534Z,94.43
2022-12-15T14:27:58.865Z,95.05
2022-12-15T14:30:29.485Z,90.10
2022-12-15T14:33:00.869Z,87.50
2022-12-15T14:35:36.147Z,97.55
2022-12-15T14:38:08.614Z,96.07
2022-12-15T14:40:39.855Z,88.75
2022-12-15T14:43:12.302Z,97.13
2022-12-15T14:45:40.632Z,93.95
2022-12-15T14:48:40.127Z,92.65
2022-12-15T14:51:01.337Z,99.57
2022-12-15T14:53:34.255Z,98.85
2022-12-15T14:56:29.656Z,94.05
2022-12-15T14:59:03.874Z,92.72
2022-12-15T15:01:37.238Z,91.65
2022-12-15T15:04:07.211Z,93.88
2022-12-15T15:06:40.325Z,88.55
2022-12-15T15:09:25.118Z,99.88
2022-12-15T15:11:57.956Z,101.38
2022-12-15T15:14:31.635Z,87.75
2022-12-15T15:17:07.339Z,89.17
2022-12-15T15:19:39.872Z,87.57
2022-12-15T15:22:35.098Z,89.60
2022-12-15T15:25:27.955Z,91.25
2022-12-15T15:28:13.263Z,92.88
2022-12-15T15:30:48.158Z,100.38
2022-12-15T15:33:17.398Z,93.22
2022-12-15T15:35:48.712Z,84.50
2022-12-15T15:38:24.326Z,96.50
2022-12-15T15:40:53.515Z,90.15
2022-12-15T15:43:23.975Z,98.03
2022-12-15T15:45:57.039Z,95.63
2022-12-15T15:48:29.789Z,95.38
2022-12-15T15:50:58.673Z,99.82
2022-12-15T15:53:28.256Z,106.18
2022-12-15T15:55:56.959Z,100.45
2022-12-15T15:58:26.547Z,102.97
2022-12-15T16:00:54.678Z,102.13
2022-12-15T16:03:23.039Z,107.47
2022-12-15T16:05:51.307Z,116.97
2022-12-15T16:08:22.305Z,111.10
2022-12-15T16:10:50.665Z,101.47
2022-12-15T16:13:25.570Z,103.72
2022-12-15T16:15:56.092Z,103.22
2022-12-15T16:18:24.706Z,101.47
2022-12-15T16:20:55.858Z,104.72
2022-12-15T16:23:29.761Z,112.30
2022-12-15T16:25:59.729Z,99.83
2022-12-15T16:28:30.095Z,103.93
2022-12-15T16:31:01.279Z,99.80
2022-12-15T16:33:29.746Z,111.78
2022-12-15T16:35:59.075Z,116.93
2022-12-15T16:38:30.091Z,111.53
2022-12-15T16:41:05.329Z,105.25
2022-12-15T16:43:38.164Z,117.43
2022-12-15T16:46:13.296Z,111.53
2022-12-15T16:48:41.750Z,114.40
2022-12-15T16:51:21.295Z,110.35
2022-12-15T16:53:49.513Z,117.78
2022-12-15T16:56:17.818Z,107.90
2022-12-15T16:58:48.963Z,116.78
2022-12-15T17:01:22.907Z,123.85
2022-12-15T17:03:51.246Z,126.53
2022-12-15T17:06:19.591Z,123.93
2022-12-15T17:08:51.158Z,128.63
2022-12-15T17:11:22.422Z,131.20
2022-12-15T17:13:52.368Z,135.65
2022-12-15T17:16:24.160Z,145.88
2022-12-15T17:18:53.424Z,151.53
2022-12-15T17:21:26.671Z,155.45
2022-12-15T17:23:59.347Z,151.15
2022-12-15T17:26:30.255Z,130.02
2022-12-15T17:29:02.223Z,131.18
2022-12-15T17:31:35.535Z,133.10
2022-12-15T17:34:26.560Z,122.20
2022-12-15T17:36:55.013Z,119.68
2022-12-15T17:39:24.035Z,136.35
2022-12-15T17:42:07.400Z,127.85
2022-12-15T17:44:38.629Z,126.70
2022-12-15T17:47:09.437Z,116.25
2022-12-15T17:49:39.217Z,119.57
2022-12-15T17:52:17.743Z,127.35
2022-12-15T17:54:48.852Z,119.32
2022-12-15T17:57:17.087Z,112.70
2022-12-15T17:59:45.808Z,112.13
2022-12-15T18:02:16.150Z,125.53
2022-12-15T18:04:44.803Z,119.57
2022-12-15T18:07:18.076Z,113.35
2022-12-15T18:09:46.615Z,122.47
2022-12-15T18:12:20.306Z,117.75
2022-12-15T18:14:48.685Z,137.13
2022-12-15T18:17:18.314Z,142.02
2022-12-15T18:19:46.400Z,161.90
2022-12-15T18:22:18.110Z,160.73
2022-12-15T18:24:46.332Z,138.77
2022-12-15T18:27:27.115Z,126.95
2022-12-15T18:29:56.378Z,134.73
2022-12-15T18:32:29.780Z,123.72
2022-12-15T18:34:59.192Z,136.20
2022-12-15T18:37:28.063Z,124.78
2022-12-15T18:40:02.561Z,127.07
2022-12-15T18:42:32.991Z,126.70
2022-12-15T18:45:04.940Z,113.80
2022-12-15T18:47:34.411Z,121.65
2022-12-15T18:50:05.067Z,113.85
2022-12-15T18:52:35.049Z,117.00
2022-12-15T18:55:03.368Z,119.15
2022-12-15T18:57:33.350Z,116.63
2022-12-15T19:00:05.333Z,117.07
2022-12-15T19:02:34.897Z,123.50
2022-12-15T19:05:03.162Z,121.00
2022-12-15T19:07:31.655Z,111.72
2022-12-15T19:10:00.839Z,116.28
2022-12-15T19:12:28.964Z,123.80
2022-12-15T19:14:57.076Z,126.97
2022-12-15T19:17:43.278Z,129.65
2022-12-15T19:20:36.113Z,125.20
2022-12-15T19:23:04.903Z,132.07
2022-12-15T19:25:36.380Z,128.63
2022-12-15T19:28:06.404Z,117.65
2022-12-15T19:30:41.594Z,127.70
2022-12-15T19:33:14.310Z,128.73
2022-12-15T19:35:46.463Z,138.45
2022-12-15T19:38:25.444Z,131.07
2022-12-15T19:40:54.508Z,126.45
2022-12-15T19:43:23.749Z,132.18
2022-12-15T19:45:53.021Z,126.85
2022-12-15T19:48:23.720Z,127.93
2022-12-15T19:50:54.952Z,123.45
2022-12-15T19:53:26.071Z,125.40
2022-12-15T19:55:56.294Z,125.68
2022-12-15T19:58:29.072Z,133.40
2022-12-15T20:00:58.859Z,134.45
2022-12-15T20:03:31.092Z,141.98
2022-12-15T20:06:02.914Z,136.98
2022-12-15T20:08:35.403Z,130.45
2022-12-15T20:13:32.413Z,130.50
2022-12-15T20:16:00.830Z,131.98
2022-12-15T20:18:29.236Z,132.13
2022-12-15T20:20:57.704Z,130.10
2022-12-15T20:23:29.423Z,131.65
2022-12-15T20:25:58.239Z,137.77
2022-12-15T20:28:28.992Z,126.85
2022-12-15T20:30:58.362Z,138.23
2022-12-15T20:33:26.599Z,131.85
2022-12-15T20:35:55.299Z,129.50
2022-12-15T20:38:32.301Z,130.68
2022-12-15T20:41:01.955Z,137.77
2022-12-15T20:43:33.888Z,141.35
2022-12-15T20:46:06.067Z,138.13
2022-12-15T20:48:36.488Z,141.10
2022-12-15T20:51:09.284Z,137.30
2022-12-15T20:53:39.934Z,138.40
2022-12-15T20:56:08.659Z,140.45
2022-12-15T20:58:40.037Z,145.38
2022-12-15T21:01:18.339Z,135.20
2022-12-15T21:03:47.528Z,142.57
2022-12-15T21:06:15.992Z,141.00
2022-12-15T21:08:45.630Z,140.10
2022-12-15T21:11:18.426Z,136.73
2022-12-15T21:13:48.033Z,134.07
2022-12-15T21:16:19.506Z,131.23
2022-12-15T21:21:38.801Z,139.00
2022-12-15T21:24:16.731Z,139.38
2022-12-15T21:26:47.743Z,133.82
2022-12-15T21:29:17.367Z,134.05
2022-12-15T21:31:46.368Z,152.52
2022-12-15T21:34:16.168Z,143.07
2022-12-15T21:36:46.955Z,146.70
2022-12-15T21:39:24.382Z,150.30
2022-12-15T21:41:52.816Z,144.43
2022-12-15T21:44:23.373Z,140.57
2022-12-15T21:46:53.667Z,157.15
2022-12-15T21:49:22.245Z,140.02
2022-12-15T21:51:55.694Z,140.20
2022-12-15T21:54:30.907Z,144.75
2022-12-15T21:57:00.071Z,141.32
2022-12-15T21:59:30.791Z,139.82
2022-12-15T22:02:00.944Z,135.98
2022-12-15T22:04:32.435Z,149.75
2022-12-15T22:07:00.682Z,144.45
2022-12-15T22:09:30.190Z,135.85
2022-12-15T22:11:58.577Z,138.13
2022-12-15T22:14:28.707Z,137.15
2022-12-15T22:16:57.441Z,145.50
2022-12-15T22:19:25.709Z,149.57
2022-12-15T22:21:54.161Z,139.25
2022-12-15T22:24:23.435Z,152.15
2022-12-15T22:26:53.001Z,149.35
2022-12-15T22:29:23.358Z,143.73
2022-12-15T22:31:52.068Z,139.07
2022-12-15T22:34:22.851Z,142.32
2022-12-15T22:36:52.305Z,141.30
2022-12-15T22:39:20.677Z,140.02
2022-12-15T22:41:50.951Z,144.52
2022-12-15T22:44:23.746Z,140.07
2022-12-15T22:46:54.140Z,147.18
2022-12-15T22:49:24.366Z,142.05
2022-12-15T22:51:52.829Z,133.82
2022-12-15T22:54:24.287Z,142.10
2022-12-15T22:56:56.595Z,158.18
2022-12-15T22:59:30.110Z,142.23
2022-12-15T23:02:00.429Z,136.68
2022-12-15T23:04:31.779Z,154.60
2022-12-15T23:07:03.449Z,143.30
2022-12-15T23:09:31.597Z,147.80
2022-12-15T23:11:59.164Z,159.82
2022-12-15T23:14:43.225Z,274.05
2022-12-15T23:17:12.667Z,241.43
2022-12-15T23:19:44.794Z,197.45
2022-12-15T23:22:13.535Z,168.50
2022-12-15T23:24:41.877Z,154.75
2022-12-15T23:27:11.527Z,140.02
2022-12-15T23:29:41.035Z,159.65
2022-12-15T23:32:09.152Z,139.75
2022-12-15T23:34:37.199Z,138.77
2022-12-15T23:37:05.355Z,137.38
2022-12-15T23:39:33.450Z,143.05
2022-12-15T23:42:01.539Z,149.25
2022-12-15T23:44:30.193Z,164.90
2022-12-15T23:46:59.914Z,152.40
2022-12-15T23:49:28.066Z,150.50
2022-12-15T23:51:57.600Z,139.75
2022-12-15T23:54:25.805Z,138.88
2022-12-15T23:56:53.967Z,145.70
2022-12-15T23:59:23.016Z,148.20
